createdAt,value
2016-03-07T00:00:11.154Z,0
2016-03-07T00:01:11.172Z,0
2016-03-07T00:02:11.174Z,0
2016-03-07T00:03:11.178Z,0
2016-03-07T00:04:11.055Z,0
2016-03-07T00:05:11.199Z,0
2016-03-07T00:06:11.248Z,0
2016-03-07T00:07:11.235Z,0
2016-03-07T00:08:11.254Z,0
2016-03-07T00:09:11.287Z,0
2016-03-07T00:10:11.274Z,0
2016-03-07T00:11:11.293Z,0
2016-03-07T00:12:11.280Z,0
2016-03-07T00:13:11.315Z,0
2016-03-07T00:14:11.317Z,0
2016-03-07T00:15:11.334Z,0
2016-03-07T00:16:11.323Z,0
2016-03-07T00:17:11.340Z,0
2016-03-07T00:18:11.358Z,0
2016-03-07T00:19:11.362Z,0
2016-03-07T00:20:11.395Z,0
2016-03-07T00:21:11.398Z,0
2016-03-07T00:22:11.401Z,0
2016-03-07T00:23:11.403Z,0
2016-03-07T00:24:11.405Z,0
2016-03-07T00:25:11.440Z,0
2016-03-07T00:26:11.458Z,0
2016-03-07T00:27:11.476Z,0
2016-03-07T00:28:11.494Z,0
2016-03-07T00:29:11.513Z,0
2016-03-07T00:30:11.500Z,0
2016-03-07T00:31:11.519Z,0
2016-03-07T00:32:11.521Z,0
2016-03-07T00:33:11.524Z,0
2016-03-07T00:34:11.558Z,0
2016-03-07T00:35:10.780Z,0
2016-03-07T00:36:11.579Z,0
2016-03-07T00:37:11.565Z,0
2016-03-07T00:38:11.569Z,0
2016-03-07T00:39:11.618Z,0
2016-03-07T00:40:11.621Z,0
2016-03-07T00:41:11.624Z,0
2016-03-07T00:42:11.610Z,0
2016-03-07T00:43:11.645Z,0
2016-03-07T00:44:11.663Z,0
2016-03-07T00:45:11.650Z,0
2016-03-07T00:46:11.683Z,0
2016-03-07T00:47:11.687Z,0
2016-03-07T00:48:11.705Z,0
2016-03-07T00:49:11.708Z,0
2016-03-07T00:50:11.726Z,0
2016-03-07T00:51:11.728Z,0
2016-03-07T00:52:11.606Z,0
2016-03-07T00:53:11.734Z,0
2016-03-07T00:54:11.767Z,0
2016-03-07T00:55:11.786Z,0
2016-03-07T00:56:11.789Z,0
2016-03-07T00:57:11.822Z,0
2016-03-07T00:58:11.810Z,0
2016-03-07T00:59:11.828Z,0
2016-03-07T01:00:11.816Z,0
2016-03-07T01:01:11.849Z,0
2016-03-07T01:02:11.868Z,0
2016-03-07T01:03:11.871Z,0
2016-03-07T01:04:11.888Z,0
2016-03-07T01:05:11.876Z,0
2016-03-07T01:06:11.894Z,0
2016-03-07T01:07:11.943Z,0
2016-03-07T01:08:11.931Z,0
2016-03-07T01:09:11.933Z,0
2016-03-07T01:10:11.982Z,0
2016-03-07T01:11:11.954Z,0
2016-03-07T01:12:11.988Z,0
2016-03-07T01:13:11.975Z,0
2016-03-07T01:14:12.009Z,0
2016-03-07T01:15:12.012Z,0
2016-03-07T01:16:11.998Z,0
2016-03-07T01:17:12.034Z,0
2016-03-07T01:18:12.067Z,0
2016-03-07T01:19:12.054Z,0
2016-03-07T01:20:12.072Z,0
2016-03-07T01:21:12.059Z,0
2016-03-07T01:22:12.093Z,0
2016-03-07T01:23:12.127Z,0
2016-03-07T01:24:12.114Z,0
2016-03-07T01:25:12.117Z,0
2016-03-07T01:26:12.120Z,0
2016-03-07T01:27:12.139Z,0
2016-03-07T01:28:12.172Z,0
2016-03-07T01:29:12.158Z,0
2016-03-07T01:30:12.178Z,0
2016-03-07T01:31:12.196Z,0
2016-03-07T01:32:12.198Z,0
2016-03-07T01:33:12.216Z,0
2016-03-07T01:34:12.235Z,0
2016-03-07T01:35:12.221Z,0
2016-03-07T01:36:12.272Z,0
2016-03-07T01:37:12.258Z,0
2016-03-07T01:38:12.276Z,0
2016-03-07T01:39:12.264Z,0
2016-03-07T01:40:12.298Z,0
2016-03-07T01:41:12.316Z,0
2016-03-07T01:42:12.287Z,0
2016-03-07T01:43:12.353Z,0
2016-03-07T01:44:12.387Z,0
2016-03-07T01:45:12.374Z,0
2016-03-07T01:46:12.345Z,0
2016-03-07T01:47:12.379Z,0
2016-03-07T01:48:12.382Z,0
2016-03-07T01:49:12.384Z,0
2016-03-07T01:50:12.450Z,0
2016-03-07T01:51:12.420Z,0
2016-03-07T01:52:12.440Z,0
2016-03-07T01:53:12.426Z,0
2016-03-07T01:54:12.445Z,0
2016-03-07T01:55:12.495Z,0
2016-03-07T01:56:12.466Z,0
2016-03-07T01:57:12.500Z,0
2016-03-07T01:58:12.487Z,0
2016-03-07T01:59:12.521Z,0
2016-03-07T02:00:12.507Z,0
2016-03-07T02:01:12.542Z,0
2016-03-07T02:02:12.591Z,0
2016-03-07T02:03:12.547Z,0
2016-03-07T02:04:12.581Z,0
2016-03-07T02:05:12.568Z,0
2016-03-07T02:06:12.633Z,0
2016-03-07T02:07:12.605Z,0
2016-03-07T02:08:12.591Z,0
2016-03-07T02:09:12.626Z,0
2016-03-07T02:10:12.660Z,0
2016-03-07T02:11:12.647Z,0
2016-03-07T02:12:12.649Z,0
2016-03-07T02:13:12.668Z,0
2016-03-07T02:14:12.671Z,0
2016-03-07T02:15:12.673Z,0
2016-03-07T02:16:12.770Z,0
2016-03-07T02:17:12.710Z,0
2016-03-07T02:18:12.728Z,0
2016-03-07T02:19:12.762Z,0
2016-03-07T02:20:12.734Z,0
2016-03-07T02:21:12.799Z,0
2016-03-07T02:22:12.787Z,0
2016-03-07T02:23:12.773Z,0
2016-03-07T02:24:12.792Z,0
2016-03-07T02:25:12.825Z,0
2016-03-07T02:26:12.797Z,0
2016-03-07T02:27:12.831Z,0
2016-03-07T02:28:12.708Z,0
2016-03-07T02:29:12.837Z,0
2016-03-07T02:30:12.886Z,0
2016-03-07T02:31:12.904Z,0
2016-03-07T02:32:12.891Z,0
2016-03-07T02:33:12.925Z,0
2016-03-07T02:34:12.927Z,0
2016-03-07T02:35:12.914Z,0
2016-03-07T02:36:12.917Z,0
2016-03-07T02:37:13.014Z,0
2016-03-07T02:38:12.970Z,0
2016-03-07T02:39:12.988Z,0
2016-03-07T02:40:12.960Z,0
2016-03-07T02:41:13.009Z,0
2016-03-07T02:42:12.996Z,0
2016-03-07T02:43:12.999Z,0
2016-03-07T02:44:12.282Z,0
2016-03-07T02:45:13.052Z,0
2016-03-07T02:46:13.054Z,0
2016-03-07T02:47:13.072Z,0
2016-03-07T02:48:13.043Z,0
2016-03-07T02:49:13.109Z,0
2016-03-07T02:50:13.096Z,0
2016-03-07T02:51:13.098Z,0
2016-03-07T02:52:13.132Z,0
2016-03-07T02:53:13.120Z,0
2016-03-07T02:54:13.154Z,0
2016-03-07T02:55:13.140Z,0
2016-03-07T02:56:13.159Z,0
2016-03-07T02:57:13.177Z,0
2016-03-07T02:58:13.180Z,0
2016-03-07T02:59:13.198Z,0
2016-03-07T03:00:13.185Z,0
2016-03-07T03:01:13.220Z,0
2016-03-07T03:02:13.237Z,0
2016-03-07T03:03:13.225Z,0
2016-03-07T03:04:13.258Z,0
2016-03-07T03:05:13.277Z,0
2016-03-07T03:06:13.264Z,0
2016-03-07T03:07:13.282Z,0
2016-03-07T03:08:13.300Z,0
2016-03-07T03:09:13.288Z,0
2016-03-07T03:10:13.322Z,0
2016-03-07T03:11:13.324Z,0
2016-03-07T03:12:13.327Z,0
2016-03-07T03:13:13.377Z,0
2016-03-07T03:14:13.254Z,0
2016-03-07T03:15:13.397Z,0
2016-03-07T03:16:13.384Z,0
2016-03-07T03:17:13.388Z,0
2016-03-07T03:18:13.421Z,0
2016-03-07T03:19:13.440Z,0
2016-03-07T03:20:13.426Z,0
2016-03-07T03:21:13.476Z,0
2016-03-07T03:22:13.448Z,0
2016-03-07T03:23:13.512Z,0
2016-03-07T03:24:13.468Z,0
2016-03-07T03:25:13.503Z,0
2016-03-07T03:26:13.490Z,0
2016-03-07T03:27:12.758Z,0
2016-03-07T03:28:13.511Z,0
2016-03-07T03:29:13.592Z,0
2016-03-07T03:30:13.547Z,0
2016-03-07T03:31:13.565Z,0
2016-03-07T03:32:13.583Z,0
2016-03-07T03:33:13.570Z,0
2016-03-07T03:34:13.605Z,0
2016-03-07T03:35:13.608Z,0
2016-03-07T03:36:13.611Z,0
2016-03-07T03:37:13.597Z,0
2016-03-07T03:38:13.647Z,0
2016-03-07T03:39:13.649Z,0
2016-03-07T03:40:13.652Z,0
2016-03-07T03:41:13.702Z,0
2016-03-07T03:42:13.658Z,0
2016-03-07T03:43:13.691Z,0
2016-03-07T03:44:13.741Z,0
2016-03-07T03:45:13.713Z,0
2016-03-07T03:46:13.746Z,0
2016-03-07T03:47:13.749Z,0
2016-03-07T03:48:13.751Z,0
2016-03-07T03:49:13.738Z,0
2016-03-07T03:50:13.773Z,0
2016-03-07T03:51:13.791Z,0
2016-03-07T03:52:13.793Z,0
2016-03-07T03:53:13.796Z,0
2016-03-07T03:54:13.814Z,0
2016-03-07T03:55:13.833Z,0
2016-03-07T03:56:13.867Z,0
2016-03-07T03:57:13.839Z,0
2016-03-07T03:58:13.856Z,0
2016-03-07T03:59:13.985Z,0
2016-03-07T04:00:13.753Z,0
2016-03-07T04:01:13.896Z,0
2016-03-07T04:02:13.930Z,0
2016-03-07T04:03:13.933Z,0
2016-03-07T04:04:13.919Z,0
2016-03-07T04:05:13.923Z,0
2016-03-07T04:06:13.956Z,0
2016-03-07T04:07:13.975Z,0
2016-03-07T04:08:13.977Z,0
2016-03-07T04:09:13.980Z,0
2016-03-07T04:10:13.983Z,0
2016-03-07T04:11:14.033Z,0
2016-03-07T04:12:14.019Z,0
2016-03-07T04:13:14.022Z,0
2016-03-07T04:14:14.103Z,0
2016-03-07T04:15:14.059Z,0
2016-03-07T04:16:14.077Z,0
2016-03-07T04:17:14.095Z,0
2016-03-07T04:18:14.082Z,0
2016-03-07T04:19:14.101Z,0
2016-03-07T04:20:14.135Z,0
2016-03-07T04:21:14.121Z,0
2016-03-07T04:22:14.140Z,0
2016-03-07T04:23:14.142Z,0
2016-03-07T04:24:14.161Z,0
2016-03-07T04:25:14.179Z,0
2016-03-07T04:26:14.182Z,0
2016-03-07T04:27:14.184Z,0
2016-03-07T04:28:14.110Z,0
2016-03-07T04:29:14.237Z,0
2016-03-07T04:30:14.271Z,0
2016-03-07T04:31:14.226Z,0
2016-03-07T04:32:14.245Z,0
2016-03-07T04:33:14.263Z,0
2016-03-07T04:34:14.126Z,0
2016-03-07T04:35:14.269Z,0
2016-03-07T04:36:14.353Z,0
2016-03-07T04:37:14.292Z,0
2016-03-07T04:38:14.327Z,0
2016-03-07T04:39:14.361Z,0
2016-03-07T04:40:14.332Z,0
2016-03-07T04:41:14.338Z,0
2016-03-07T04:42:14.201Z,0
2016-03-07T04:43:14.343Z,0
2016-03-07T04:44:15.863Z,0
2016-03-07T04:45:14.396Z,0
2016-03-07T04:46:14.399Z,0
2016-03-07T04:47:14.386Z,0
2016-03-07T04:48:14.467Z,0
2016-03-07T04:49:14.439Z,0
2016-03-07T04:50:14.488Z,0
2016-03-07T04:51:14.506Z,0
2016-03-07T04:52:14.493Z,0
2016-03-07T04:53:14.481Z,0
2016-03-07T04:54:14.358Z,0
2016-03-07T04:55:14.486Z,0
2016-03-07T04:56:14.535Z,0
2016-03-07T04:57:14.600Z,0
2016-03-07T04:58:14.509Z,0
2016-03-07T04:59:14.606Z,0
2016-03-07T05:00:13.843Z,0
2016-03-07T05:01:14.596Z,0
2016-03-07T05:02:14.630Z,0
2016-03-07T05:03:14.585Z,0
2016-03-07T05:04:14.619Z,0
2016-03-07T05:05:14.668Z,0
2016-03-07T05:06:14.616Z,0
2016-03-07T05:07:14.635Z,0
2016-03-07T05:08:14.669Z,0
2016-03-07T05:09:14.657Z,0
2016-03-07T05:10:14.674Z,0
2016-03-07T05:11:14.693Z,0
2016-03-07T05:12:14.696Z,0
2016-03-07T05:13:14.713Z,0
2016-03-07T05:14:14.748Z,0
2016-03-07T05:15:14.734Z,0
2016-03-07T05:16:14.721Z,0
2016-03-07T05:17:14.771Z,0
2016-03-07T05:18:14.759Z,0
2016-03-07T05:19:14.776Z,0
2016-03-07T05:20:14.795Z,0
2016-03-07T05:21:14.781Z,0
2016-03-07T05:22:14.800Z,0
2016-03-07T05:23:14.865Z,0
2016-03-07T05:24:14.837Z,0
2016-03-07T05:25:14.824Z,0
2016-03-07T05:26:14.873Z,0
2016-03-07T05:27:14.861Z,0
2016-03-07T05:28:14.879Z,0
2016-03-07T05:29:14.913Z,0
2016-03-07T05:30:14.916Z,0
2016-03-07T05:31:14.902Z,0
2016-03-07T05:32:14.156Z,0
2016-03-07T05:33:14.924Z,0
2016-03-07T05:34:14.942Z,0
2016-03-07T05:35:14.960Z,0
2016-03-07T05:36:14.947Z,0
2016-03-07T05:37:14.950Z,0
2016-03-07T05:38:15.000Z,0
2016-03-07T05:39:15.002Z,0
2016-03-07T05:40:15.005Z,0
2016-03-07T05:41:15.008Z,0
2016-03-07T05:42:15.026Z,0
2016-03-07T05:43:15.044Z,0
2016-03-07T05:44:15.062Z,0
2016-03-07T05:45:15.081Z,0
2016-03-07T05:46:15.068Z,0
2016-03-07T05:47:15.087Z,0
2016-03-07T05:48:15.104Z,0
2016-03-07T05:49:15.139Z,0
2016-03-07T05:50:14.969Z,0
2016-03-07T05:51:15.129Z,0
2016-03-07T05:52:15.178Z,0
2016-03-07T05:53:15.181Z,0
2016-03-07T05:54:15.167Z,0
2016-03-07T05:55:15.171Z,0
2016-03-07T05:56:15.204Z,0
2016-03-07T05:57:15.207Z,0
2016-03-07T05:58:15.209Z,0
2016-03-07T05:59:15.259Z,0
2016-03-07T06:00:15.247Z,0
2016-03-07T06:01:15.265Z,0
2016-03-07T06:02:15.252Z,0
2016-03-07T06:03:15.286Z,0
2016-03-07T06:04:15.304Z,0
2016-03-07T06:05:15.291Z,0
2016-03-07T06:06:15.310Z,0
2016-03-07T06:07:15.327Z,0
2016-03-07T06:08:15.315Z,0
2016-03-07T06:09:15.349Z,0
2016-03-07T06:10:15.367Z,0
2016-03-07T06:11:15.369Z,0
2016-03-07T06:12:15.388Z,0
2016-03-07T06:13:15.390Z,0
2016-03-07T06:14:14.643Z,0
2016-03-07T06:15:15.427Z,0
2016-03-07T06:16:15.430Z,0
2016-03-07T06:17:15.432Z,5
2016-03-07T06:18:15.498Z,5
2016-03-07T06:19:15.437Z,5
2016-03-07T06:20:15.473Z,5
2016-03-07T06:21:15.506Z,5
2016-03-07T06:22:15.493Z,5
2016-03-07T06:23:15.511Z,5
2016-03-07T06:24:15.546Z,5
2016-03-07T06:25:15.532Z,10
2016-03-07T06:26:15.535Z,10
2016-03-07T06:27:15.600Z,10
2016-03-07T06:28:15.556Z,10
2016-03-07T06:29:15.575Z,10
2016-03-07T06:30:15.578Z,10
2016-03-07T06:31:15.627Z,15
2016-03-07T06:32:15.614Z,15
2016-03-07T06:33:15.632Z,15
2016-03-07T06:34:15.697Z,15
2016-03-07T06:35:15.638Z,15
2016-03-07T06:36:15.640Z,20
2016-03-07T06:37:15.721Z,20
2016-03-07T06:38:15.677Z,20
2016-03-07T06:39:15.711Z,20
2016-03-07T06:40:15.729Z,20
2016-03-07T06:41:15.716Z,20
2016-03-07T06:42:15.718Z,20
2016-03-07T06:43:15.753Z,25
2016-03-07T06:44:15.755Z,25
2016-03-07T06:45:15.758Z,25
2016-03-07T06:46:15.760Z,25
2016-03-07T06:47:15.810Z,25
2016-03-07T06:48:15.797Z,25
2016-03-07T06:49:15.801Z,25
2016-03-07T06:50:15.803Z,25
2016-03-07T06:51:15.821Z,25
2016-03-07T06:52:15.840Z,25
2016-03-07T06:53:15.874Z,20
2016-03-07T06:54:15.860Z,20
2016-03-07T06:55:15.863Z,20
2016-03-07T06:56:15.897Z,20
2016-03-07T06:57:15.863Z,20
2016-03-07T06:58:15.914Z,20
2016-03-07T06:59:15.902Z,20
2016-03-07T07:00:15.890Z,20
2016-03-07T07:01:15.894Z,20
2016-03-07T07:02:15.182Z,25
2016-03-07T07:03:15.883Z,25
2016-03-07T07:04:15.895Z,25
2016-03-07T07:05:15.924Z,25
2016-03-07T07:06:15.905Z,25
2016-03-07T07:07:15.935Z,25
2016-03-07T07:08:15.983Z,25
2016-03-07T07:09:15.921Z,25
2016-03-07T07:10:15.969Z,25
2016-03-07T07:11:15.939Z,25
2016-03-07T07:12:15.956Z,25
2016-03-07T07:13:15.973Z,30
2016-03-07T07:14:16.007Z,30
2016-03-07T07:15:15.994Z,30
2016-03-07T07:16:16.012Z,30
2016-03-07T07:17:16.034Z,30
2016-03-07T07:18:16.067Z,30
2016-03-07T07:19:16.055Z,25
2016-03-07T07:20:16.042Z,25
2016-03-07T07:21:16.075Z,25
2016-03-07T07:22:16.062Z,25
2016-03-07T07:23:16.095Z,25
2016-03-07T07:24:16.099Z,25
2016-03-07T07:25:16.101Z,20
2016-03-07T07:26:16.120Z,20
2016-03-07T07:27:16.153Z,20
2016-03-07T07:28:16.156Z,20
2016-03-07T07:29:16.158Z,20
2016-03-07T07:30:16.161Z,15
2016-03-07T07:31:16.195Z,15
2016-03-07T07:32:16.214Z,15
2016-03-07T07:33:16.201Z,15
2016-03-07T07:34:16.219Z,15
2016-03-07T07:35:16.284Z,15
2016-03-07T07:36:16.225Z,15
2016-03-07T07:37:16.258Z,15
2016-03-07T07:38:16.292Z,20
2016-03-07T07:39:16.264Z,20
2016-03-07T07:40:16.313Z,20
2016-03-07T07:41:16.316Z,20
2016-03-07T07:42:16.302Z,20
2016-03-07T07:43:16.337Z,20
2016-03-07T07:44:16.371Z,20
2016-03-07T07:45:16.374Z,20
2016-03-07T07:46:16.360Z,20
2016-03-07T07:47:16.380Z,20
2016-03-07T07:48:16.382Z,25
2016-03-07T07:49:16.369Z,25
2016-03-07T07:50:16.402Z,25
2016-03-07T07:51:16.421Z,25
2016-03-07T07:52:16.423Z,30
2016-03-07T07:53:16.457Z,30
2016-03-07T07:54:16.475Z,35
2016-03-07T07:55:16.462Z,40
2016-03-07T07:56:16.481Z,40
2016-03-07T07:57:16.531Z,45
2016-03-07T07:58:16.502Z,45
2016-03-07T07:59:16.520Z,50
2016-03-07T08:00:16.554Z,50
2016-03-07T08:01:16.542Z,50
2016-03-07T08:02:16.545Z,55
2016-03-07T08:03:16.547Z,55
2016-03-07T08:04:16.612Z,60
2016-03-07T08:05:16.630Z,65
2016-03-07T08:06:16.648Z,65
2016-03-07T08:07:16.729Z,70
2016-03-07T08:08:16.638Z,75
2016-03-07T08:09:16.641Z,80
2016-03-07T08:10:16.519Z,85
2016-03-07T08:11:16.661Z,90
2016-03-07T08:12:16.665Z,95
2016-03-07T08:13:16.699Z,95
2016-03-07T08:14:16.686Z,100
2016-03-07T08:15:16.955Z,100
2016-03-07T08:16:16.722Z,100
2016-03-07T08:17:16.741Z,105
2016-03-07T08:18:16.727Z,110
2016-03-07T08:19:16.777Z,110
2016-03-07T08:20:16.796Z,110
2016-03-07T08:21:16.767Z,110
2016-03-07T08:22:16.801Z,110
2016-03-07T08:23:16.818Z,110
2016-03-07T08:24:16.790Z,110
2016-03-07T08:25:16.824Z,110
2016-03-07T08:26:16.874Z,110
2016-03-07T08:27:16.846Z,105
2016-03-07T08:28:16.865Z,105
2016-03-07T08:29:16.898Z,110
2016-03-07T08:30:16.885Z,115
2016-03-07T08:31:16.887Z,120
2016-03-07T08:32:16.922Z,115
2016-03-07T08:33:16.925Z,105
2016-03-07T08:34:16.942Z,105
2016-03-07T08:35:16.961Z,100
2016-03-07T08:36:16.964Z,95
2016-03-07T08:37:16.966Z,95
2016-03-07T08:38:17.031Z,100
2016-03-07T08:39:17.019Z,95
2016-03-07T08:40:17.052Z,95
2016-03-07T08:41:17.072Z,100
2016-03-07T08:42:17.027Z,95
2016-03-07T08:43:17.045Z,95
2016-03-07T08:44:17.063Z,85
2016-03-07T08:45:17.097Z,90
2016-03-07T08:46:17.069Z,90
2016-03-07T08:47:16.931Z,90
2016-03-07T08:48:17.105Z,90
2016-03-07T08:49:17.138Z,95
2016-03-07T08:50:17.142Z,85
2016-03-07T08:51:17.160Z,90
2016-03-07T08:52:17.163Z,105
2016-03-07T08:53:17.181Z,105
2016-03-07T08:54:17.168Z,100
2016-03-07T08:55:17.202Z,100
2016-03-07T08:56:17.220Z,105
2016-03-07T08:57:17.239Z,95
2016-03-07T08:58:17.226Z,95
2016-03-07T08:59:17.260Z,95
2016-03-07T09:00:17.278Z,100
2016-03-07T09:01:17.296Z,100
2016-03-07T09:02:17.267Z,105
2016-03-07T09:03:17.318Z,105
2016-03-07T09:04:17.929Z,105
2016-03-07T09:05:17.307Z,105
2016-03-07T09:06:17.357Z,105
2016-03-07T09:07:17.344Z,105
2016-03-07T09:08:17.362Z,100
2016-03-07T09:09:17.364Z,100
2016-03-07T09:10:17.383Z,105
2016-03-07T09:11:17.433Z,115
2016-03-07T09:12:17.436Z,110
2016-03-07T09:13:17.422Z,105
2016-03-07T09:14:17.425Z,100
2016-03-07T09:15:17.366Z,95
2016-03-07T09:16:17.461Z,95
2016-03-07T09:17:17.480Z,100
2016-03-07T09:18:17.499Z,120
2016-03-07T09:19:17.502Z,100
2016-03-07T09:20:17.535Z,115
2016-03-07T09:21:17.538Z,105
2016-03-07T09:22:17.572Z,100
2016-03-07T09:23:17.544Z,100
2016-03-07T09:24:17.592Z,120
2016-03-07T09:25:17.626Z,130
2016-03-07T09:26:17.629Z,130
2016-03-07T09:27:17.601Z,135
2016-03-07T09:28:17.634Z,140
2016-03-07T09:29:17.637Z,160
2016-03-07T09:30:17.703Z,165
2016-03-07T09:31:17.674Z,180
2016-03-07T09:32:17.661Z,185
2016-03-07T09:33:17.711Z,185
2016-03-07T09:34:17.714Z,195
2016-03-07T09:35:17.717Z,190
2016-03-07T09:36:17.844Z,190
2016-03-07T09:37:17.752Z,185
2016-03-07T09:38:17.739Z,180
2016-03-07T09:39:17.773Z,190
2016-03-07T09:40:17.792Z,190
2016-03-07T09:41:17.795Z,190
2016-03-07T09:42:17.814Z,195
2016-03-07T09:43:17.816Z,195
2016-03-07T09:44:17.116Z,195
2016-03-07T09:45:17.900Z,190
2016-03-07T09:46:17.871Z,185
2016-03-07T09:47:17.874Z,185
2016-03-07T09:48:17.876Z,185
2016-03-07T09:49:17.769Z,180
2016-03-07T09:50:17.912Z,180
2016-03-07T09:51:17.821Z,180
2016-03-07T09:52:17.933Z,175
2016-03-07T09:53:17.999Z,165
2016-03-07T09:54:17.971Z,150
2016-03-07T09:55:18.035Z,165
2016-03-07T09:56:18.007Z,140
2016-03-07T09:57:18.447Z,155
2016-03-07T09:58:18.044Z,150
2016-03-07T09:59:18.077Z,145
2016-03-07T10:00:18.112Z,155
2016-03-07T10:01:18.083Z,155
2016-03-07T10:02:18.085Z,160
2016-03-07T10:03:18.119Z,150
2016-03-07T10:04:18.106Z,140
2016-03-07T10:05:18.125Z,135
2016-03-07T10:06:18.160Z,130
2016-03-07T10:07:18.146Z,125
2016-03-07T10:08:18.181Z,125
2016-03-07T10:09:18.199Z,120
2016-03-07T10:10:18.217Z,120
2016-03-07T10:11:18.189Z,120
2016-03-07T10:12:18.254Z,120
2016-03-07T10:13:18.225Z,120
2016-03-07T10:14:18.290Z,120
2016-03-07T10:15:18.309Z,120
2016-03-07T10:16:18.281Z,115
2016-03-07T10:17:18.284Z,115
2016-03-07T10:18:18.318Z,120
2016-03-07T10:19:18.337Z,115
2016-03-07T10:20:18.355Z,110
2016-03-07T10:21:18.357Z,110
2016-03-07T10:22:18.360Z,110
2016-03-07T10:23:18.362Z,110
2016-03-07T10:24:18.397Z,110
2016-03-07T10:25:18.415Z,110
2016-03-07T10:26:18.418Z,110
2016-03-07T10:27:18.436Z,110
2016-03-07T10:28:18.454Z,110
2016-03-07T10:29:18.442Z,110
2016-03-07T10:30:18.476Z,110
2016-03-07T10:31:18.540Z,110
2016-03-07T10:32:18.497Z,110
2016-03-07T10:33:18.484Z,115
2016-03-07T10:34:18.533Z,115
2016-03-07T10:35:18.520Z,115
2016-03-07T10:36:18.569Z,115
2016-03-07T10:37:18.541Z,115
2016-03-07T10:38:18.606Z,125
2016-03-07T10:39:18.578Z,115
2016-03-07T10:40:18.596Z,110
2016-03-07T10:41:18.583Z,110
2016-03-07T10:42:18.649Z,110
2016-03-07T10:43:18.635Z,110
2016-03-07T10:44:18.638Z,110
2016-03-07T10:45:18.719Z,110
2016-03-07T10:46:18.660Z,110
2016-03-07T10:47:18.693Z,110
2016-03-07T10:48:18.696Z,115
2016-03-07T10:49:18.714Z,115
2016-03-07T10:50:18.716Z,115
2016-03-07T10:51:18.751Z,115
2016-03-07T10:52:18.738Z,115
2016-03-07T10:53:18.803Z,115
2016-03-07T10:54:18.790Z,115
2016-03-07T10:55:18.792Z,115
2016-03-07T10:56:18.796Z,110
2016-03-07T10:57:18.845Z,110
2016-03-07T10:58:18.817Z,115
2016-03-07T10:59:18.850Z,115
2016-03-07T11:00:20.081Z,115
2016-03-07T11:01:18.723Z,115
2016-03-07T11:02:18.866Z,110
2016-03-07T11:03:26.087Z,110
2016-03-07T11:04:18.918Z,110
2016-03-07T11:05:18.905Z,110
2016-03-07T11:06:18.938Z,110
2016-03-07T11:07:18.957Z,110
2016-03-07T11:08:18.975Z,110
2016-03-07T11:09:18.994Z,110
2016-03-07T11:10:18.981Z,110
2016-03-07T11:11:19.015Z,110
2016-03-07T11:12:19.033Z,110
2016-03-07T11:13:18.849Z,110
2016-03-07T11:14:19.054Z,110
2016-03-07T11:15:19.150Z,110
2016-03-07T11:16:19.059Z,110
2016-03-07T11:17:19.093Z,115
2016-03-07T11:18:19.081Z,115
2016-03-07T11:19:19.098Z,120
2016-03-07T11:20:19.117Z,125
2016-03-07T11:21:19.151Z,130
2016-03-07T11:22:19.137Z,135
2016-03-07T11:23:19.157Z,140
2016-03-07T11:24:19.175Z,145
2016-03-07T11:25:19.192Z,145
2016-03-07T11:26:19.195Z,145
2016-03-07T11:27:19.183Z,150
2016-03-07T11:28:19.216Z,150
2016-03-07T11:29:19.219Z,150
2016-03-07T11:30:19.316Z,155
2016-03-07T11:31:19.241Z,155
2016-03-07T11:32:19.258Z,155
2016-03-07T11:33:19.261Z,160
2016-03-07T11:34:19.295Z,160
2016-03-07T11:35:19.297Z,160
2016-03-07T11:36:19.316Z,160
2016-03-07T11:37:19.319Z,165
2016-03-07T11:38:19.338Z,165
2016-03-07T11:39:19.371Z,165
2016-03-07T11:40:19.389Z,165
2016-03-07T11:41:19.361Z,170
2016-03-07T11:42:19.379Z,170
2016-03-07T11:43:19.398Z,170
2016-03-07T11:44:19.446Z,170
2016-03-07T11:45:19.154Z,170
2016-03-07T11:46:19.452Z,175
2016-03-07T11:47:19.314Z,175
2016-03-07T11:48:19.474Z,175
2016-03-07T11:49:19.523Z,175
2016-03-07T11:50:19.478Z,175
2016-03-07T11:51:19.513Z,180
2016-03-07T11:52:19.501Z,180
2016-03-07T11:53:19.550Z,180
2016-03-07T11:54:19.536Z,180
2016-03-07T11:55:19.570Z,190
2016-03-07T11:56:19.589Z,185
2016-03-07T11:57:19.575Z,180
2016-03-07T11:58:19.594Z,180
2016-03-07T11:59:19.472Z,205
2016-03-07T12:00:19.694Z,225
2016-03-07T12:01:19.478Z,225
2016-03-07T12:02:19.667Z,210
2016-03-07T12:03:19.670Z,220
2016-03-07T12:04:19.532Z,230
2016-03-07T12:05:19.691Z,225
2016-03-07T12:06:19.697Z,215
2016-03-07T12:07:20.197Z,225
2016-03-07T12:08:19.730Z,230
2016-03-07T12:09:19.748Z,230
2016-03-07T12:10:19.799Z,230
2016-03-07T12:11:19.785Z,210
2016-03-07T12:12:19.771Z,200
2016-03-07T12:13:19.790Z,180
2016-03-07T12:14:19.856Z,175
2016-03-07T12:15:19.826Z,170
2016-03-07T12:16:19.876Z,165
2016-03-07T12:17:19.880Z,160
2016-03-07T12:18:19.867Z,160
2016-03-07T12:19:19.884Z,160
2016-03-07T12:20:19.918Z,150
2016-03-07T12:21:19.906Z,150
2016-03-07T12:22:19.909Z,150
2016-03-07T12:23:19.926Z,150
2016-03-07T12:24:19.961Z,150
2016-03-07T12:25:20.011Z,150
2016-03-07T12:26:19.981Z,150
2016-03-07T12:27:20.000Z,150
2016-03-07T12:28:20.019Z,150
2016-03-07T12:29:19.865Z,150
2016-03-07T12:30:20.071Z,150
2016-03-07T12:31:20.042Z,150
2016-03-07T12:32:20.076Z,150
2016-03-07T12:33:20.078Z,150
2016-03-07T12:34:20.253Z,150
2016-03-07T12:35:20.100Z,150
2016-03-07T12:36:20.165Z,150
2016-03-07T12:37:20.136Z,150
2016-03-07T12:38:20.155Z,150
2016-03-07T12:39:20.157Z,150
2016-03-07T12:40:20.176Z,150
2016-03-07T12:41:20.194Z,150
2016-03-07T12:42:20.228Z,150
2016-03-07T12:43:20.230Z,150
2016-03-07T12:44:20.265Z,150
2016-03-07T12:45:20.252Z,150
2016-03-07T12:46:20.395Z,150
2016-03-07T12:47:20.257Z,150
2016-03-07T12:48:20.337Z,150
2016-03-07T12:49:20.279Z,145
2016-03-07T12:50:20.312Z,145
2016-03-07T12:51:20.314Z,140
2016-03-07T12:52:20.380Z,140
2016-03-07T12:53:20.209Z,135
2016-03-07T12:54:20.353Z,130
2016-03-07T12:55:20.404Z,130
2016-03-07T12:56:20.422Z,135
2016-03-07T12:57:20.409Z,130
2016-03-07T12:58:20.427Z,130
2016-03-07T12:59:20.430Z,125
2016-03-07T13:00:20.433Z,125
2016-03-07T13:01:20.482Z,120
2016-03-07T13:02:20.469Z,120
2016-03-07T13:03:19.735Z,115
2016-03-07T13:04:20.519Z,110
2016-03-07T13:05:20.521Z,110
2016-03-07T13:06:20.524Z,105
2016-03-07T13:07:20.558Z,105
2016-03-07T13:08:20.560Z,105
2016-03-07T13:09:20.563Z,105
2016-03-07T13:10:20.599Z,100
2016-03-07T13:11:20.459Z,100
2016-03-07T13:12:20.621Z,100
2016-03-07T13:13:20.640Z,100
2016-03-07T13:14:20.657Z,100
2016-03-07T13:15:20.738Z,100
2016-03-07T13:16:20.679Z,100
2016-03-07T13:17:20.696Z,105
2016-03-07T13:18:20.731Z,105
2016-03-07T13:19:20.718Z,105
2016-03-07T13:20:20.768Z,105
2016-03-07T13:21:20.739Z,105
2016-03-07T13:22:20.789Z,105
2016-03-07T13:23:20.791Z,105
2016-03-07T13:24:20.810Z,105
2016-03-07T13:25:20.812Z,105
2016-03-07T13:26:20.845Z,105
2016-03-07T13:27:20.817Z,105
2016-03-07T13:28:20.898Z,105
2016-03-07T13:29:20.870Z,105
2016-03-07T13:30:20.888Z,105
2016-03-07T13:31:20.892Z,110
2016-03-07T13:32:20.941Z,110
2016-03-07T13:33:20.911Z,110
2016-03-07T13:34:20.946Z,110
2016-03-07T13:35:20.964Z,110
2016-03-07T13:36:20.983Z,110
2016-03-07T13:37:21.033Z,110
2016-03-07T13:38:21.003Z,110
2016-03-07T13:39:21.006Z,110
2016-03-07T13:40:21.040Z,110
2016-03-07T13:41:21.043Z,110
2016-03-07T13:42:21.077Z,110
2016-03-07T13:43:21.080Z,110
2016-03-07T13:44:21.114Z,110
2016-03-07T13:45:21.101Z,115
2016-03-07T13:46:21.149Z,115
2016-03-07T13:47:21.168Z,115
2016-03-07T13:48:21.171Z,115
2016-03-07T13:49:21.158Z,115
2016-03-07T13:50:21.208Z,115
2016-03-07T13:51:21.288Z,115
2016-03-07T13:52:21.195Z,115
2016-03-07T13:53:21.228Z,115
2016-03-07T13:54:21.248Z,115
2016-03-07T13:55:21.281Z,115
2016-03-07T13:56:21.268Z,120
2016-03-07T13:57:21.286Z,115
2016-03-07T13:58:21.304Z,125
2016-03-07T13:59:21.307Z,120
2016-03-07T14:00:21.356Z,120
2016-03-07T14:01:21.437Z,120
2016-03-07T14:02:21.361Z,120
2016-03-07T14:03:21.349Z,120
2016-03-07T14:04:21.383Z,120
2016-03-07T14:05:21.402Z,120
2016-03-07T14:06:21.419Z,120
2016-03-07T14:07:21.439Z,120
2016-03-07T14:08:21.441Z,125
2016-03-07T14:09:21.459Z,125
2016-03-07T14:10:21.477Z,125
2016-03-07T14:11:21.511Z,125
2016-03-07T14:12:21.499Z,125
2016-03-07T14:13:21.532Z,120
2016-03-07T14:14:21.519Z,120
2016-03-07T14:15:21.554Z,120
2016-03-07T14:16:21.572Z,120
2016-03-07T14:17:21.622Z,120